Time;durP1;ratioP1;P1;durP2;ratioP2;P2;SDS_P1;SDS_P2;PMS_P1;PMS_P2;Temp;Humidity;BMP_temperature;BMP_pressure;BME280_temperature;BME280_humidity;BME280_pressure;Samples;Min_cycle;Max_cycle;Signal;HPM_P1;HPM_P2
2022/03/05 00:00:39;;;;;;;19.67;15.57;;;-0.10;99.90;;;;;;5153015;27;20126;-73
2022/03/05 00:03:05;;;;;;;18.58;16.15;;;-0.10;99.90;;;;;;5146685;27;20093;-73
2022/03/05 00:05:31;;;;;;;19.73;16.50;;;-0.10;99.90;;;;;;5140404;27;20053;-73
2022/03/05 00:07:56;;;;;;;19.67;17.13;;;-0.20;99.90;;;;;;5153053;27;20738;-73
2022/03/05 00:10:23;;;;;;;19.85;16.00;;;-0.20;99.90;;;;;;5153744;27;20043;-73
2022/03/05 00:12:50;;;;;;;19.00;15.85;;;-0.20;99.90;;;;;;5133638;27;20046;-72
2022/03/05 00:15:16;;;;;;;19.55;16.48;;;-0.20;99.90;;;;;;5141285;27;20046;-73
2022/03/05 00:17:43;;;;;;;18.80;15.38;;;-0.20;99.90;;;;;;5152546;27;20533;-73
2022/03/05 00:20:10;;;;;;;18.63;15.77;;;-0.30;99.90;;;;;;5154364;27;20046;-73
2022/03/05 00:22:35;;;;;;;19.50;16.08;;;-0.30;99.90;;;;;;5140428;27;20034;-73
2022/03/05 00:25:02;;;;;;;18.97;15.93;;;-0.30;99.90;;;;;;5153436;27;20046;-73
2022/03/05 00:27:28;;;;;;;18.80;15.93;;;-0.30;99.90;;;;;;5152309;27;20511;-73
2022/03/05 00:29:54;;;;;;;18.83;15.27;;;-0.30;99.90;;;;;;5153571;27;20066;-73
2022/03/05 00:32:19;;;;;;;19.10;15.97;;;-0.40;99.90;;;;;;5152417;27;20047;-73
2022/03/05 00:34:45;;;;;;;19.60;15.35;;;-0.30;99.90;;;;;;5152772;27;20062;-73
2022/03/05 00:37:11;;;;;;;17.27;15.30;;;-0.40;99.90;;;;;;5153171;27;20058;-73
2022/03/05 00:39:37;;;;;;;19.13;15.40;;;-0.40;99.90;;;;;;5154107;27;20035;-73
2022/03/05 00:42:04;;;;;;;19.50;15.43;;;-0.40;99.90;;;;;;5150527;27;20045;-73
2022/03/05 00:44:30;;;;;;;18.60;15.80;;;-0.50;99.90;;;;;;5152127;27;20042;-73
2022/03/05 00:46:56;;;;;;;19.37;16.17;;;-0.50;99.90;;;;;;5152185;27;20050;-73
2022/03/05 00:49:22;;;;;;;19.07;15.37;;;-0.50;99.90;;;;;;5153780;27;20487;-73
2022/03/05 00:51:49;;;;;;;19.17;15.90;;;-0.50;99.90;;;;;;5152625;27;20043;-73
2022/03/05 00:54:14;;;;;;;19.05;15.52;;;-0.60;99.90;;;;;;5145979;27;20045;-73
2022/03/05 00:56:40;;;;;;;19.03;15.33;;;-0.60;99.90;;;;;;5155913;27;20118;-73
2022/03/05 00:59:06;;;;;;;20.63;15.27;;;-0.60;99.90;;;;;;5157047;27;20388;-73
2022/03/05 01:01:32;;;;;;;18.90;14.67;;;-0.50;99.90;;;;;;5157210;27;20456;-73
2022/03/05 01:03:57;;;;;;;17.07;14.37;;;-0.60;99.90;;;;;;5152684;27;20096;-73
2022/03/05 01:06:23;;;;;;;19.10;15.33;;;-0.50;99.90;;;;;;5151411;27;20098;-73
2022/03/05 01:08:49;;;;;;;18.07;14.10;;;-0.50;99.90;;;;;;5152727;27;20046;-73
2022/03/05 01:11:17;;;;;;;18.20;14.53;;;-0.50;99.90;;;;;;5152309;27;20127;-73
2022/03/05 01:13:43;;;;;;;16.00;13.70;;;-0.50;99.90;;;;;;5138091;27;20043;-73
2022/03/05 01:16:09;;;;;;;18.03;14.27;;;-0.50;99.90;;;;;;5123561;27;20047;-73
2022/03/05 01:18:35;;;;;;;18.23;14.10;;;-0.50;99.90;;;;;;5157364;27;20167;-73
2022/03/05 01:21:01;;;;;;;18.63;14.33;;;-0.50;99.90;;;;;;5156388;27;20112;-73
2022/03/05 01:23:26;;;;;;;17.17;14.83;;;-0.50;99.90;;;;;;5156544;27;20042;-73
2022/03/05 01:25:52;;;;;;;18.17;13.47;;;-0.50;99.90;;;;;;5136424;27;20498;-74
2022/03/05 01:28:18;;;;;;;18.43;14.07;;;-0.40;99.90;;;;;;5139268;27;20039;-73
2022/03/05 01:30:44;;;;;;;16.83;14.23;;;-0.50;99.90;;;;;;5156632;27;20525;-73
2022/03/05 01:33:12;;;;;;;17.90;13.80;;;-0.50;99.90;;;;;;5156623;27;20042;-73
2022/03/05 01:35:38;;;;;;;17.67;12.97;;;-0.50;99.90;;;;;;5137696;27;20115;-73
2022/03/05 01:38:04;;;;;;;17.23;12.93;;;-0.40;99.90;;;;;;5156853;27;20054;-73
2022/03/05 01:40:30;;;;;;;16.63;13.10;;;-0.50;99.90;;;;;;5156464;27;20047;-73
2022/03/05 01:42:56;;;;;;;15.63;13.20;;;-0.40;99.90;;;;;;5138500;27;20049;-73
2022/03/05 01:45:22;;;;;;;16.73;12.97;;;-0.40;99.90;;;;;;5137874;27;20402;-73
2022/03/05 01:47:48;;;;;;;16.67;12.83;;;-0.40;99.90;;;;;;5157095;27;20042;-73
2022/03/05 01:50:14;;;;;;;15.50;12.93;;;-0.40;99.90;;;;;;5155796;27;20398;-73
2022/03/05 01:52:39;;;;;;;15.90;12.80;;;-0.50;99.90;;;;;;5156424;27;20086;-73
2022/03/05 01:55:06;;;;;;;15.00;12.57;;;-0.50;99.90;;;;;;5144761;27;20062;-73
2022/03/05 01:57:32;;;;;;;16.57;12.73;;;-0.50;99.90;;;;;;5146214;27;20488;-73
2022/03/05 01:59:58;;;;;;;16.20;12.40;;;-0.50;99.90;;;;;;5147878;27;20050;-73
2022/03/05 02:02:24;;;;;;;17.03;12.97;;;-0.50;99.90;;;;;;5155790;27;20503;-73
2022/03/05 02:04:50;;;;;;;16.90;12.70;;;-0.50;99.90;;;;;;5131975;27;20124;-73
2022/03/05 02:07:15;;;;;;;15.53;12.50;;;-0.50;99.90;;;;;;5127666;27;20054;-73
2022/03/05 02:09:41;;;;;;;15.13;12.03;;;-0.50;99.90;;;;;;5137493;27;20038;-73
2022/03/05 02:12:07;;;;;;;15.13;12.37;;;-0.50;99.90;;;;;;5156098;27;20055;-73
2022/03/05 02:14:33;;;;;;;16.30;12.30;;;-0.50;99.90;;;;;;5154060;27;20057;-73
2022/03/05 02:16:58;;;;;;;14.77;12.10;;;-0.50;99.90;;;;;;5154857;27;20042;-73
2022/03/05 02:19:24;;;;;;;13.80;11.27;;;-0.60;99.90;;;;;;5155883;27;20095;-73
2022/03/05 02:21:50;;;;;;;15.80;12.27;;;-0.60;99.90;;;;;;5149570;27;20047;-73
2022/03/05 02:24:31;;;;;;;15.10;12.37;;;-0.60;99.90;;;;;;5155543;27;20039;-73
2022/03/05 02:26:58;;;;;;;16.60;12.80;;;-0.60;99.90;;;;;;5135243;27;20043;-74
2022/03/05 02:29:25;;;;;;;16.37;12.67;;;-0.60;99.90;;;;;;5154647;27;20054;-73
2022/03/05 02:31:53;;;;;;;15.47;12.50;;;-0.60;99.90;;;;;;5150381;27;20100;-73
2022/03/05 02:34:19;;;;;;;15.20;12.43;;;-0.60;99.90;;;;;;5150421;27;20141;-73
2022/03/05 02:36:44;;;;;;;16.40;13.23;;;-0.60;99.90;;;;;;5155170;27;20130;-74
2022/03/05 02:39:10;;;;;;;15.60;12.50;;;-0.60;99.90;;;;;;5142813;27;20096;-73
2022/03/05 02:41:36;;;;;;;16.80;13.07;;;-0.60;99.90;;;;;;5117318;27;20047;-73
2022/03/05 02:44:02;;;;;;;15.30;12.37;;;-0.60;99.90;;;;;;5149504;27;20042;-73
2022/03/05 02:46:29;;;;;;;17.50;12.97;;;-0.60;99.90;;;;;;5155341;27;20045;-73
2022/03/05 02:48:56;;;;;;;16.07;12.90;;;-0.60;99.90;;;;;;5155951;27;20046;-73
2022/03/05 02:51:22;;;;;;;16.17;13.03;;;-0.60;99.90;;;;;;5144009;27;20046;-73
2022/03/05 02:53:48;;;;;;;16.03;12.33;;;-0.70;99.90;;;;;;5155453;27;20041;-73
2022/03/05 02:56:14;;;;;;;17.97;12.87;;;-0.70;99.90;;;;;;5144690;27;20047;-73
2022/03/05 02:58:40;;;;;;;15.70;12.80;;;-0.70;99.90;;;;;;5137987;27;20071;-73
2022/03/05 03:01:06;;;;;;;16.07;12.77;;;-0.70;99.90;;;;;;5154381;27;20074;-73
2022/03/05 03:03:31;;;;;;;15.57;12.33;;;-0.70;99.90;;;;;;5155484;27;20042;-73
2022/03/05 03:05:57;;;;;;;16.90;13.47;;;-0.70;99.90;;;;;;5147321;27;20467;-73
2022/03/05 03:08:23;;;;;;;17.63;13.20;;;-0.70;99.90;;;;;;5134626;27;20051;-73
2022/03/05 03:10:49;;;;;;;19.13;13.47;;;-0.70;99.90;;;;;;5139906;27;20039;-73
2022/03/05 03:13:14;;;;;;;15.47;12.90;;;-0.70;99.90;;;;;;5153935;27;20078;-73
2022/03/05 03:15:40;;;;;;;16.23;13.40;;;-0.70;99.90;;;;;;5154074;27;20054;-73
2022/03/05 03:18:06;;;;;;;17.80;13.37;;;-0.70;99.90;;;;;;5153602;27;20039;-73
2022/03/05 03:20:32;;;;;;;16.87;13.27;;;-0.70;99.90;;;;;;5154677;27;20064;-73
2022/03/05 03:22:57;;;;;;;17.33;13.67;;;-0.70;99.90;;;;;;5155302;27;20091;-73
2022/03/05 03:25:23;;;;;;;16.10;13.00;;;-0.70;99.90;;;;;;5153992;27;20031;-73
2022/03/05 03:27:50;;;;;;;18.57;13.83;;;-0.70;99.90;;;;;;5154890;27;20047;-73
2022/03/05 03:30:18;;;;;;;18.93;14.27;;;-0.80;99.90;;;;;;5154336;27;20043;-73
2022/03/05 03:32:44;;;;;;;19.30;14.47;;;-0.70;99.90;;;;;;5135809;27;20370;-73
2022/03/05 03:35:13;;;;;;;19.67;14.67;;;-0.80;99.90;;;;;;5134364;27;20057;-73
2022/03/05 03:37:40;;;;;;;17.13;13.60;;;-0.80;99.90;;;;;;5153807;27;20117;-73
2022/03/05 03:40:09;;;;;;;18.77;14.23;;;-0.70;99.90;;;;;;5147572;27;20046;-74
2022/03/05 03:42:34;;;;;;;17.37;13.53;;;-0.80;99.90;;;;;;5137872;27;20053;-73
2022/03/05 03:45:01;;;;;;;20.40;14.60;;;-0.80;99.90;;;;;;5149410;27;20039;-72
2022/03/05 03:47:26;;;;;;;19.53;14.50;;;-0.80;99.90;;;;;;5145286;27;20114;-73
2022/03/05 03:49:52;;;;;;;20.27;14.60;;;-0.80;99.90;;;;;;5151152;27;20117;-73
2022/03/05 03:52:18;;;;;;;20.47;15.67;;;-0.80;99.90;;;;;;5149524;27;20502;-73
2022/03/05 03:54:45;;;;;;;21.17;14.83;;;-0.90;99.90;;;;;;5154025;27;20050;-73
2022/03/05 03:57:12;;;;;;;20.30;14.63;;;-0.90;99.90;;;;;;5152452;27;20039;-73
2022/03/05 03:59:37;;;;;;;21.87;14.50;;;-0.90;99.90;;;;;;5135507;27;20039;-72
2022/03/05 04:02:04;;;;;;;19.83;14.57;;;-0.90;99.90;;;;;;5154615;27;20042;-72
2022/03/05 04:04:31;;;;;;;21.13;14.40;;;-0.80;99.90;;;;;;5153518;27;20043;-73
2022/03/05 04:09:41;;;;;;;21.73;15.47;;;-0.80;99.90;;;;;;5154576;27;20395;-73
2022/03/05 04:12:07;;;;;;;20.90;14.77;;;-0.80;99.90;;;;;;5151809;27;20049;-73
2022/03/05 04:14:33;;;;;;;21.03;14.90;;;-0.80;99.90;;;;;;5133052;27;20039;-73
2022/03/05 04:16:58;;;;;;;20.00;15.27;;;-0.80;99.90;;;;;;5147786;27;20053;-73
2022/03/05 04:19:24;;;;;;;21.40;15.47;;;-0.80;99.90;;;;;;5132696;27;20130;-73
2022/03/05 04:21:50;;;;;;;21.87;16.23;;;-0.80;99.90;;;;;;5148627;27;20111;-73
2022/03/05 04:24:16;;;;;;;20.73;15.43;;;-0.80;99.90;;;;;;5152923;27;20038;-73
2022/03/05 04:26:41;;;;;;;23.43;15.77;;;-0.80;99.90;;;;;;5154657;27;20038;-73
2022/03/05 04:29:07;;;;;;;20.27;15.20;;;-0.80;99.90;;;;;;5140161;27;20428;-73
2022/03/05 04:31:33;;;;;;;21.33;15.67;;;-0.80;99.90;;;;;;5150050;27;20038;-73
2022/03/05 04:33:59;;;;;;;22.30;16.07;;;-0.80;99.90;;;;;;5142875;27;20041;-73
2022/03/05 04:36:25;;;;;;;20.93;15.40;;;-0.80;99.90;;;;;;5153198;27;20419;-73
2022/03/05 04:38:50;;;;;;;20.13;15.20;;;-0.90;99.90;;;;;;5153759;27;20403;-73
2022/03/05 04:41:16;;;;;;;22.20;14.97;;;-0.90;99.90;;;;;;5152571;27;20456;-73
2022/03/05 04:43:42;;;;;;;20.27;14.80;;;-1.00;99.90;;;;;;5140847;27;20094;-73
2022/03/05 04:46:08;;;;;;;19.50;14.60;;;-1.00;99.90;;;;;;5150882;27;20144;-73
2022/03/05 04:48:33;;;;;;;19.70;14.47;;;-1.00;99.90;;;;;;5152213;27;20130;-73
2022/03/05 04:50:59;;;;;;;20.63;15.07;;;-1.00;99.90;;;;;;5153924;27;20472;-73
2022/03/05 04:53:25;;;;;;;20.40;15.30;;;-1.00;99.90;;;;;;5151250;27;20042;-73
2022/03/05 04:55:50;;;;;;;19.00;14.20;;;-1.10;99.90;;;;;;5153879;27;20061;-73
2022/03/05 04:58:17;;;;;;;19.30;14.60;;;-1.10;99.90;;;;;;5143194;27;20130;-74
2022/03/05 05:00:42;;;;;;;19.83;14.80;;;-1.10;99.90;;;;;;5149532;27;20498;-73
2022/03/05 05:03:08;;;;;;;17.70;13.60;;;-1.10;99.90;;;;;;5152969;27;20039;-73
2022/03/05 05:05:34;;;;;;;18.63;13.43;;;-1.10;99.90;;;;;;5153051;27;20070;-73
2022/03/05 05:08:00;;;;;;;21.20;14.40;;;-1.10;99.90;;;;;;5134236;27;20049;-73
2022/03/05 05:10:26;;;;;;;18.33;13.57;;;-1.10;99.90;;;;;;5152713;27;20043;-74
2022/03/05 05:12:51;;;;;;;18.20;14.03;;;-1.10;99.90;;;;;;5149955;27;20471;-73
2022/03/05 05:15:17;;;;;;;19.30;14.03;;;-1.20;99.90;;;;;;5132822;27;20471;-74
2022/03/05 05:17:43;;;;;;;18.70;13.33;;;-1.20;99.90;;;;;;5152914;27;20546;-73
2022/03/05 05:20:10;;;;;;;19.80;13.87;;;-1.20;99.90;;;;;;5148255;27;20498;-73
2022/03/05 05:22:36;;;;;;;20.63;13.93;;;-1.20;99.90;;;;;;5132650;27;20127;-73
2022/03/05 05:25:03;;;;;;;18.07;13.93;;;-1.20;99.90;;;;;;5132909;28;20458;-73
2022/03/05 05:27:34;;;;;;;19.53;14.43;;;-1.30;99.90;;;;;;5132348;27;20453;-73
2022/03/05 05:29:59;;;;;;;17.67;13.90;;;-1.20;99.90;;;;;;5138508;27;20095;-73
2022/03/05 05:32:25;;;;;;;21.17;15.10;;;-1.30;99.90;;;;;;5152623;27;20068;-73
2022/03/05 05:34:51;;;;;;;19.33;13.87;;;-1.30;99.90;;;;;;5152386;27;20054;-73
2022/03/05 05:37:17;;;;;;;22.07;15.23;;;-1.30;99.90;;;;;;5153639;27;20139;-73
2022/03/05 05:39:42;;;;;;;20.10;13.87;;;-1.30;99.90;;;;;;5152112;27;20495;-73
2022/03/05 05:42:08;;;;;;;20.47;14.60;;;-1.30;99.90;;;;;;5154222;27;20038;-73
2022/03/05 05:44:34;;;;;;;19.93;14.23;;;-1.30;99.90;;;;;;5137695;27;20054;-73
2022/03/05 05:47:00;;;;;;;20.10;14.63;;;-1.30;99.90;;;;;;5118408;27;20039;-73
2022/03/05 05:49:25;;;;;;;21.00;14.73;;;-1.30;99.90;;;;;;5153759;27;20123;-73
2022/03/05 05:51:51;;;;;;;19.13;13.93;;;-1.30;99.90;;;;;;5118289;27;20039;-73
2022/03/05 05:54:17;;;;;;;21.20;15.17;;;-1.30;99.90;;;;;;5150866;27;20425;-73
2022/03/05 05:56:42;;;;;;;22.07;14.30;;;-1.30;99.90;;;;;;5152048;27;20651;-73
2022/03/05 05:59:08;;;;;;;21.30;15.17;;;-1.30;99.90;;;;;;5153398;27;20096;-73
2022/03/05 06:01:34;;;;;;;19.37;14.27;;;-1.20;99.90;;;;;;5156157;27;20050;-73
2022/03/05 06:04:00;;;;;;;19.90;14.17;;;-1.30;99.90;;;;;;5147428;27;20043;-73
2022/03/05 06:06:26;;;;;;;20.03;14.73;;;-1.20;99.90;;;;;;5138295;27;20441;-74
2022/03/05 06:08:51;;;;;;;20.43;14.50;;;-1.30;99.90;;;;;;5140589;27;20060;-73
2022/03/05 06:11:17;;;;;;;18.83;13.73;;;-1.30;99.90;;;;;;5152428;27;20070;-72
2022/03/05 06:13:43;;;;;;;20.83;14.77;;;-1.20;99.90;;;;;;5140602;27;20076;-72
2022/03/05 06:16:09;;;;;;;18.80;14.23;;;-1.20;99.90;;;;;;5156541;27;20055;-72
2022/03/05 06:18:34;;;;;;;21.57;14.77;;;-1.20;99.90;;;;;;5155544;27;20038;-72
2022/03/05 06:21:00;;;;;;;18.47;13.77;;;-1.20;99.90;;;;;;5155031;27;20046;-73
2022/03/05 06:23:26;;;;;;;18.93;13.73;;;-1.20;99.90;;;;;;5137146;27;20071;-74
2022/03/05 06:25:52;;;;;;;19.03;13.37;;;-1.10;99.90;;;;;;5136471;27;20184;-72
2022/03/05 06:28:18;;;;;;;17.30;13.30;;;-1.20;99.90;;;;;;5136886;27;20050;-73
2022/03/05 06:30:44;;;;;;;18.10;13.20;;;-1.20;99.90;;;;;;5145442;27;20047;-72
2022/03/05 06:33:10;;;;;;;17.47;13.20;;;-1.20;99.90;;;;;;5149235;27;20043;-72
2022/03/05 06:35:36;;;;;;;17.00;13.40;;;-1.10;99.90;;;;;;5145033;27;20364;-72
2022/03/05 06:38:01;;;;;;;16.67;12.67;;;-1.10;99.90;;;;;;5120470;27;20057;-72
2022/03/05 06:40:27;;;;;;;17.00;12.73;;;-1.10;99.90;;;;;;5155710;27;20445;-73
2022/03/05 06:42:54;;;;;;;17.67;13.90;;;-1.00;99.90;;;;;;5155083;27;20047;-72
2022/03/05 06:45:20;;;;;;;17.40;13.70;;;-1.00;99.90;;;;;;5156136;27;20048;-72
2022/03/05 06:47:45;;;;;;;15.87;12.87;;;-0.90;99.90;;;;;;5112781;27;20753;-73
2022/03/05 06:50:11;;;;;;;17.80;13.23;;;-0.90;99.90;;;;;;5148568;27;20050;-72
2022/03/05 06:52:37;;;;;;;16.43;12.70;;;-0.90;99.90;;;;;;5150075;27;20043;-73
2022/03/05 06:55:04;;;;;;;15.00;11.93;;;-0.90;99.90;;;;;;5152153;27;20039;-73
2022/03/05 06:57:30;;;;;;;16.07;12.30;;;-0.80;99.90;;;;;;5149808;27;20043;-73
2022/03/05 06:59:56;;;;;;;16.07;12.73;;;-0.70;99.90;;;;;;5148921;27;20042;-73
2022/03/05 07:02:22;;;;;;;16.47;12.07;;;-0.70;99.90;;;;;;5151617;27;20061;-73
2022/03/05 07:04:49;;;;;;;16.60;12.47;;;-0.60;99.90;;;;;;5134680;27;20071;-73
2022/03/05 07:07:15;;;;;;;15.30;12.20;;;-0.20;99.90;;;;;;5139140;27;20050;-72
2022/03/05 07:09:41;;;;;;;15.67;12.00;;;0.30;99.90;;;;;;5154442;27;20042;-73
2022/03/05 07:12:07;;;;;;;15.83;11.83;;;0.70;99.90;;;;;;5154843;27;20472;-72
2022/03/05 07:14:32;;;;;;;16.57;11.67;;;0.90;99.90;;;;;;5154624;27;20039;-73
2022/03/05 07:16:58;;;;;;;16.73;12.52;;;0.90;99.90;;;;;;5153740;27;20049;-72
2022/03/05 07:19:24;;;;;;;16.13;12.55;;;1.00;99.90;;;;;;5155602;27;20063;-72
2022/03/05 07:21:50;;;;;;;14.35;11.77;;;1.10;99.90;;;;;;5154965;27;20039;-72
2022/03/05 07:24:16;;;;;;;15.77;12.25;;;1.40;99.90;;;;;;5155389;27;20475;-72
2022/03/05 07:26:42;;;;;;;14.57;11.85;;;1.70;99.90;;;;;;5155212;27;20082;-72
2022/03/05 07:29:08;;;;;;;14.40;12.02;;;1.80;99.90;;;;;;5155585;27;20047;-72
2022/03/05 07:31:33;;;;;;;16.33;11.82;;;2.00;99.90;;;;;;5155297;27;20078;-73
2022/03/05 07:33:59;;;;;;;13.98;11.55;;;2.20;99.90;;;;;;5137150;27;20034;-72
2022/03/05 07:36:25;;;;;;;16.50;12.32;;;2.30;99.90;;;;;;5155078;27;20069;-72
2022/03/05 07:38:51;;;;;;;14.68;11.50;;;2.30;99.90;;;;;;5154721;27;20046;-72
2022/03/05 07:41:17;;;;;;;16.13;12.73;;;2.20;99.90;;;;;;5155367;27;20110;-72
2022/03/05 07:43:44;;;;;;;15.35;12.55;;;2.20;99.90;;;;;;5154884;27;20043;-73
2022/03/05 07:46:09;;;;;;;18.40;13.02;;;2.20;99.90;;;;;;5155353;27;20047;-72
2022/03/05 07:48:35;;;;;;;16.90;13.80;;;2.10;99.90;;;;;;5154891;27;20166;-74
2022/03/05 07:51:02;;;;;;;18.70;13.80;;;2.00;99.90;;;;;;5155199;27;20041;-72
2022/03/05 07:53:31;;;;;;;17.05;13.75;;;2.00;99.90;;;;;;5136669;27;20054;-72
2022/03/05 07:55:57;;;;;;;17.45;13.82;;;1.90;99.90;;;;;;5136387;27;20039;-72
2022/03/05 07:58:23;;;;;;;15.95;13.15;;;2.00;99.90;;;;;;5155095;27;20121;-73
2022/03/05 08:00:49;;;;;;;16.92;13.75;;;1.80;99.90;;;;;;5154539;27;20491;-72
2022/03/05 08:03:14;;;;;;;17.60;14.15;;;1.70;99.90;;;;;;5154665;27;20053;-72
2022/03/05 08:05:41;;;;;;;16.50;14.18;;;1.60;99.90;;;;;;5154082;27;20039;-72
2022/03/05 08:08:07;;;;;;;18.02;14.57;;;1.60;99.90;;;;;;5154923;27;20467;-72
2022/03/05 08:10:33;;;;;;;20.80;15.23;;;1.70;99.90;;;;;;5154886;27;20103;-72
2022/03/05 08:12:58;;;;;;;17.52;14.23;;;1.60;99.90;;;;;;5154375;27;20437;-72
2022/03/05 08:15:24;;;;;;;20.88;15.00;;;1.60;99.90;;;;;;5154906;27;20444;-72
2022/03/05 08:17:56;;;;;;;19.83;15.23;;;1.60;99.90;;;;;;5153691;27;20038;-72
2022/03/05 08:20:25;;;;;;;20.90;15.88;;;1.60;99.90;;;;;;5154633;27;20495;-72
2022/03/05 08:22:51;;;;;;;20.30;15.20;;;1.60;99.90;;;;;;5154182;27;20475;-72
2022/03/05 08:25:17;;;;;;;19.58;15.13;;;1.70;99.90;;;;;;5154981;27;20121;-72
2022/03/05 08:27:43;;;;;;;19.83;15.63;;;1.70;99.90;;;;;;5153822;27;20504;-73
2022/03/05 08:30:10;;;;;;;20.08;15.23;;;1.80;99.90;;;;;;5154573;27;20126;-72
2022/03/05 08:32:36;;;;;;;20.45;15.60;;;1.90;99.90;;;;;;5153800;27;20057;-72
2022/03/05 08:35:03;;;;;;;20.00;15.43;;;2.10;99.90;;;;;;5153856;27;20050;-72
2022/03/05 08:37:29;;;;;;;19.83;14.90;;;2.30;99.90;;;;;;5154502;27;20086;-71
2022/03/05 08:39:55;;;;;;;20.45;15.73;;;2.40;99.90;;;;;;5153979;27;20135;-72
2022/03/05 08:42:21;;;;;;;20.80;16.42;;;2.40;99.90;;;;;;5154705;27;20043;-72
2022/03/05 08:44:46;;;;;;;20.33;15.93;;;2.50;99.90;;;;;;5153741;27;20042;-73
2022/03/05 08:47:12;;;;;;;22.90;16.27;;;2.50;99.90;;;;;;5136236;27;20069;-72
2022/03/05 08:49:38;;;;;;;21.65;15.85;;;2.70;99.90;;;;;;5154379;27;20130;-72
2022/03/05 08:52:04;;;;;;;22.27;16.45;;;2.90;99.90;;;;;;5153916;27;20054;-72
2022/03/05 08:54:30;;;;;;;19.88;15.27;;;3.10;99.90;;;;;;5154262;27;20126;-72
2022/03/05 08:56:56;;;;;;;20.83;15.27;;;3.30;99.90;;;;;;5153904;27;20081;-72
2022/03/05 08:59:21;;;;;;;21.70;15.40;;;3.60;99.90;;;;;;5153906;27;20080;-72
2022/03/05 09:01:47;;;;;;;21.88;16.17;;;3.80;99.90;;;;;;5154294;27;20035;-73
2022/03/05 09:04:13;;;;;;;20.70;15.60;;;4.20;99.90;;;;;;5154258;27;20035;-72
2022/03/05 09:06:39;;;;;;;20.70;14.82;;;4.40;99.90;;;;;;5154277;27;20103;-72
2022/03/05 09:09:06;;;;;;;18.23;15.02;;;4.50;99.40;;;;;;5153748;27;20475;-73
2022/03/05 09:11:32;;;;;;;20.45;15.55;;;4.70;98.40;;;;;;5154222;27;20051;-73
2022/03/05 09:13:58;;;;;;;17.92;14.65;;;4.80;97.70;;;;;;5153284;27;20038;-72
2022/03/05 09:16:24;;;;;;;19.88;15.40;;;5.00;98.10;;;;;;5154850;27;20436;-73
2022/03/05 09:18:49;;;;;;;20.10;15.57;;;5.10;96.20;;;;;;5157636;27;20038;-73
2022/03/05 09:21:15;;;;;;;19.70;15.55;;;5.30;96.60;;;;;;5158347;27;20090;-72
2022/03/05 09:23:41;;;;;;;22.08;16.73;;;5.50;96.40;;;;;;5158551;27;20042;-73
2022/03/05 09:26:07;;;;;;;23.05;16.83;;;5.80;94.80;;;;;;5157176;27;20472;-72
2022/03/05 09:28:32;;;;;;;20.90;16.15;;;5.90;93.50;;;;;;5157829;27;20447;-72
2022/03/05 09:30:58;;;;;;;22.02;17.10;;;5.80;92.20;;;;;;5139250;27;20034;-73
2022/03/05 09:33:27;;;;;;;23.27;17.38;;;5.90;91.60;;;;;;5157945;27;20223;-72
2022/03/05 09:35:54;;;;;;;20.77;16.15;;;6.00;91.30;;;;;;5157342;27;20485;-73
2022/03/05 09:38:20;;;;;;;21.38;16.70;;;6.00;90.90;;;;;;5157808;27;20043;-72
2022/03/05 09:40:45;;;;;;;21.00;16.50;;;6.20;91.10;;;;;;5157804;27;20047;-73
2022/03/05 09:43:11;;;;;;;23.45;17.30;;;6.40;91.10;;;;;;5157363;27;20471;-73
2022/03/05 09:45:38;;;;;;;21.05;16.90;;;6.40;88.60;;;;;;5156181;27;20043;-73
2022/03/05 09:48:04;;;;;;;21.55;17.00;;;6.40;88.80;;;;;;5121195;27;20054;-73
2022/03/05 09:50:32;;;;;;;21.73;16.55;;;6.60;89.30;;;;;;5137130;27;20403;-73
2022/03/05 09:52:59;;;;;;;23.30;17.70;;;6.70;86.90;;;;;;5136316;27;20047;-73
2022/03/05 09:55:25;;;;;;;22.35;16.75;;;6.60;85.60;;;;;;5136652;27;20093;-72
2022/03/05 09:57:51;;;;;;;23.73;17.42;;;6.50;85.80;;;;;;5154650;27;20077;-73
2022/03/05 10:00:17;;;;;;;24.90;18.52;;;6.50;86.50;;;;;;5157345;27;20105;-73
2022/03/05 10:02:47;;;;;;;23.65;17.85;;;6.50;84.70;;;;;;5157306;27;20038;-73
2022/03/05 10:05:15;;;;;;;25.15;18.50;;;6.50;84.60;;;;;;5156851;27;20038;-73
2022/03/05 10:08:12;;;;;;;24.40;17.90;;;6.50;86.20;;;;;;5144008;27;20043;-72
2022/03/05 10:10:50;;;;;;;25.27;19.02;;;6.70;85.00;;;;;;5136646;27;20100;-73
2022/03/05 10:13:18;;;;;;;24.52;18.30;;;6.70;85.20;;;;;;5135972;27;20446;-72
2022/03/05 10:15:45;;;;;;;24.02;17.80;;;6.70;85.90;;;;;;5136228;27;20043;-73
2022/03/05 10:18:10;;;;;;;24.75;18.80;;;6.70;84.10;;;;;;5147759;27;20085;-73
2022/03/05 10:20:50;;;;;;;23.77;18.75;;;6.70;87.30;;;;;;5156920;27;20046;-73
2022/03/05 10:23:19;;;;;;;25.77;18.98;;;6.70;85.30;;;;;;5156565;27;20080;-73
2022/03/05 10:25:56;;;;;;;25.15;19.13;;;6.60;85.20;;;;;;5156902;27;20053;-73
2022/03/05 10:28:24;;;;;;;24.88;18.63;;;6.60;84.90;;;;;;5146723;27;20043;-72
2022/03/05 10:30:55;;;;;;;27.13;19.88;;;6.70;86.20;;;;;;5117908;27;20055;-73
2022/03/05 10:33:37;;;;;;;24.23;19.20;;;6.80;86.30;;;;;;5136011;27;20053;-73
2022/03/05 10:36:06;;;;;;;25.45;19.23;;;6.80;83.70;;;;;;5135758;27;20055;-73
2022/03/05 10:38:43;;;;;;;25.52;19.08;;;6.60;83.80;;;;;;5142030;27;20053;-73
2022/03/05 10:41:09;;;;;;;24.65;18.83;;;6.50;86.10;;;;;;5156152;27;20051;-73
2022/03/05 10:43:34;;;;;;;26.10;18.15;;;6.60;85.70;;;;;;5138052;27;20478;-73
2022/03/05 10:46:00;;;;;;;24.50;18.30;;;6.40;85.10;;;;;;5156143;27;20125;-73
2022/03/05 10:48:31;;;;;;;23.92;18.52;;;6.30;86.50;;;;;;5154845;27;20129;-73
2022/03/05 10:51:09;;;;;;;26.02;19.73;;;6.40;87.90;;;;;;5156378;27;20049;-72
2022/03/05 10:53:46;;;;;;;24.75;18.85;;;6.40;87.10;;;;;;5156385;27;20049;-73
2022/03/05 10:56:28;;;;;;;25.77;19.48;;;6.40;87.40;;;;;;5155989;27;20049;-72
2022/03/05 10:59:05;;;;;;;24.92;18.58;;;6.20;90.10;;;;;;5136130;27;20042;-73
2022/03/05 11:01:33;;;;;;;24.83;19.15;;;6.10;88.00;;;;;;5156169;27;20091;-73
2022/03/05 11:03:59;;;;;;;25.55;19.48;;;6.00;89.40;;;;;;5156190;27;20049;-73
2022/03/05 11:06:26;;;;;;;26.83;20.35;;;6.10;90.10;;;;;;5156137;27;20043;-73
2022/03/05 11:08:52;;;;;;;26.35;19.88;;;5.90;89.50;;;;;;5155989;27;20046;-73
2022/03/05 11:11:20;;;;;;;26.45;19.70;;;6.00;90.90;;;;;;5153907;27;20050;-73
2022/03/05 11:13:46;;;;;;;26.08;19.45;;;6.00;90.20;;;;;;5155804;27;20047;-72
2022/03/05 11:16:12;;;;;;;26.50;20.05;;;6.00;90.10;;;;;;5155366;27;20053;-72
2022/03/05 11:18:39;;;;;;;26.20;19.55;;;5.90;90.10;;;;;;5155779;27;20038;-73
2022/03/05 11:21:05;;;;;;;25.33;19.88;;;5.90;90.40;;;;;;5153647;27;20053;-73
2022/03/05 11:23:33;;;;;;;27.88;19.98;;;5.90;92.50;;;;;;5156309;27;20046;-73
2022/03/05 11:26:00;;;;;;;26.63;20.05;;;6.00;92.30;;;;;;5155394;27;20491;-73
2022/03/05 11:28:44;;;;;;;26.10;19.23;;;6.10;90.80;;;;;;5155206;27;20122;-73
2022/03/05 11:31:18;;;;;;;29.00;20.20;;;6.10;91.20;;;;;;5153385;27;20039;-72
2022/03/05 11:33:45;;;;;;;27.27;19.33;;;6.10;91.20;;;;;;5155423;27;20051;-73
2022/03/05 11:36:38;;;;;;;28.45;20.80;;;6.00;89.20;;;;;;5154709;27;20073;-73
2022/03/05 11:39:17;;;;;;;28.95;20.88;;;6.10;90.60;;;;;;5132380;27;20094;-73
2022/03/05 11:42:03;;;;;;;28.75;20.67;;;6.10;91.30;;;;;;5153415;27;20491;-73
2022/03/05 11:44:40;;;;;;;25.50;20.15;;;6.10;90.20;;;;;;5119793;27;20051;-73
2022/03/05 11:47:18;;;;;;;26.65;20.27;;;6.20;91.10;;;;;;5134173;27;20051;-74
2022/03/05 11:49:58;;;;;;;26.88;20.80;;;6.10;90.30;;;;;;5134483;27;20057;-72
2022/03/05 11:52:53;;;;;;;27.60;20.83;;;6.20;90.40;;;;;;5134027;27;20421;-72
2022/03/05 11:55:22;;;;;;;27.48;19.77;;;6.20;88.70;;;;;;5125886;27;20092;-73
2022/03/05 11:57:50;;;;;;;27.77;20.70;;;6.10;90.30;;;;;;5134439;27;20092;-73
2022/03/05 12:00:20;;;;;;;27.13;20.13;;;6.20;90.20;;;;;;5152587;27;20046;-73
2022/03/05 12:02:48;;;;;;;29.08;21.02;;;6.30;90.70;;;;;;5155092;27;20130;-73
2022/03/05 12:05:38;;;;;;;25.15;19.63;;;6.30;90.40;;;;;;5154586;27;20039;-73
2022/03/05 12:08:09;;;;;;;27.38;20.90;;;6.30;88.50;;;;;;5154914;27;20049;-73
2022/03/05 12:10:38;;;;;;;28.38;20.85;;;6.30;88.70;;;;;;5136134;27;20050;-73
2022/03/05 12:13:06;;;;;;;27.83;20.60;;;6.30;89.30;;;;;;5154614;27;20085;-73
2022/03/05 12:15:33;;;;;;;28.73;20.80;;;6.30;87.50;;;;;;5138024;27;20035;-73
2022/03/05 12:18:03;;;;;;;26.52;20.30;;;6.40;89.50;;;;;;5154934;27;20089;-73
2022/03/05 12:20:34;;;;;;;29.63;21.42;;;6.50;89.30;;;;;;5154322;27;20046;-73
2022/03/05 12:23:02;;;;;;;;;;;6.60;88.70;;;;;;5155224;27;20046;-72
2022/03/05 12:25:33;;;;;;;26.90;20.23;;;6.60;88.90;;;;;;5152588;27;19919;-73
2022/03/05 12:27:59;;;;;;;;;;;6.60;88.70;;;;;;5155073;27;20049;-73
2022/03/05 12:30:37;;;;;;;26.35;20.00;;;6.60;89.10;;;;;;5154193;27;19923;-73
2022/03/05 12:33:08;;;;;;;25.40;19.70;;;6.60;88.30;;;;;;5154585;27;20546;-73